Time;durP1;ratioP1;P1;durP2;ratioP2;P2;SDS_P1;SDS_P2;PMS_P1;PMS_P2;Temp;Humidity;BMP_temperature;BMP_pressure;BME280_temperature;BME280_humidity;BME280_pressure;Samples;Min_cycle;Max_cycle;Signal;HPM_P1;HPM_P2
2023/04/04 00:00:25;;;;;;;;;;;;;;;;;;4974296;28;19921;-70
2023/04/04 00:02:53;;;;;;;;;;;;;;;;;;4982394;28;19922;-71
2023/04/04 00:05:23;;;;;;;;;;;;;;;;;;4982239;28;21746;-72
2023/04/04 00:07:49;;;;;;;;;;;;;;;;;;4981893;28;19925;-71
2023/04/04 00:10:16;;;;;;;;;;;;;;;;;;4983661;28;19918;-72
2023/04/04 00:12:42;;;;;;;;;;;;;;;;;;4987894;28;19926;-71
2023/04/04 00:15:07;;;;;;;;;;;;;;;;;;4971856;28;19952;-71
2023/04/04 00:17:33;;;;;;;;;;;;;;;;;;4987085;28;19976;-70
2023/04/04 00:19:58;;;;;;;;;;;;;;;;;;4982907;28;19917;-70
2023/04/04 00:22:23;;;;;;;;;;;;;;;;;;4978223;28;20014;-71
2023/04/04 00:24:49;;;;;;;;;;;;;;;;;;4996620;28;19921;-71
2023/04/04 00:27:16;;;;;;;;;;;;;;;;;;4982207;28;19975;-71
2023/04/04 00:29:42;;;;;;;;;;;;;;;;;;4984601;28;19931;-71
2023/04/04 00:32:10;;;;;;;;;;;;;;;;;;4978148;28;19998;-71
2023/04/04 00:34:35;;;;;;;;;;;;;;;;;;4970192;28;19918;-70
2023/04/04 00:37:06;;;;;;;;;;;;;;;;;;4984144;28;19972;-71
2023/04/04 00:39:36;;;;;;;;;;;;;;;;;;4980835;28;19979;-71
2023/04/04 00:42:03;;;;;;;;;;;;;;;;;;4985225;28;20278;-71
2023/04/04 00:44:29;;;;;;;;;;;;;;;;;;4968990;28;19928;-71
2023/04/04 00:46:54;;;;;;;;;;;;;;;;;;4978531;28;20011;-71
2023/04/04 00:49:20;;;;;;;;;;;;;;;;;;4963945;28;20708;-71
2023/04/04 00:51:48;;;;;;;;;;;;;;;;;;4985576;28;20511;-71
2023/04/04 00:54:16;;;;;;;;;;;;;;;;;;4984783;28;19924;-71
2023/04/04 00:56:41;;;;;;;;;;;;;;;;;;4979943;28;19920;-70
2023/04/04 00:59:09;;;;;;;;;;;;;;;;;;4985153;28;20191;-71
2023/04/04 01:01:34;;;;;;;;;;;;;;;;;;4986353;28;19918;-71
2023/04/04 01:04:01;;;;;;;;;;;;;;;;;;4983213;28;20455;-71
2023/04/04 01:06:31;;;;;;;;;;;;;;;;;;4972164;28;20141;-71
2023/04/04 01:08:56;;;;;;;;;;;;;;;;;;4982163;28;19921;-71
2023/04/04 01:11:22;;;;;;;;;;;;;;;;;;4992899;28;20102;-71
2023/04/04 01:13:50;;;;;;;;;;;;;;;;;;4985468;28;20071;-71
2023/04/04 01:16:15;;;;;;;;;;;;;;;;;;4977976;28;19964;-71
2023/04/04 01:18:43;;;;;;;;;;;;;;;;;;4975883;28;19956;-72
2023/04/04 01:21:11;;;;;;;;;;;;;;;;;;4985219;28;19932;-72
2023/04/04 01:23:39;;;;;;;;;;;;;;;;;;4976887;28;19940;-71
2023/04/04 01:26:04;;;;;;;;;;;;;;;;;;4982744;28;19921;-72
2023/04/04 01:28:29;;;;;;;;;;;;;;;;;;4983857;28;19940;-71
2023/04/04 01:30:55;;;;;;;;;;;;;;;;;;4985003;28;19921;-71
2023/04/04 01:33:22;;;;;;;;;;;;;;;;;;4981276;28;19921;-72
2023/04/04 01:35:49;;;;;;;;;;;;;;;;;;4978249;28;19921;-72
2023/04/04 01:38:17;;;;;;;;;;;;;;;;;;4983709;28;19964;-71
2023/04/04 01:40:44;;;;;;;;;;;;;;;;;;4971194;28;19921;-71
2023/04/04 01:43:12;;;;;;;;;;;;;;;;;;4978946;28;19949;-72
2023/04/04 01:45:40;;;;;;;;;;;;;;;;;;4971565;28;20364;-72
2023/04/04 01:48:09;;;;;;;;;;;;;;;;;;4991219;28;20012;-71
2023/04/04 01:50:37;;;;;;;;;;;;;;;;;;4967164;28;19928;-72
2023/04/04 01:53:06;;;;;;;;;;;;;;;;;;4984790;28;19929;-71
2023/04/04 01:55:34;;;;;;;;;;;;;;;;;;4982145;28;19921;-71
2023/04/04 01:57:59;;;;;;;;;;;;;;;;;;4984841;28;20095;-71
2023/04/04 02:00:27;;;;;;;;;;;;;;;;;;4984189;28;20052;-71
2023/04/04 02:02:52;;;;;;;;;;;;;;;;;;4987691;28;19922;-73
2023/04/04 02:05:20;;;;;;;;;;;;;;;;;;4968652;28;19921;-71
2023/04/04 02:07:45;;;;;;;;;;;;;;;;;;4985385;28;20003;-71
2023/04/04 02:10:13;;;;;;;;;;;;;;;;;;4982128;28;19921;-71
2023/04/04 02:12:38;;;;;;;;;;;;;;;;;;4980126;28;19921;-72
2023/04/04 02:15:04;;;;;;;;;;;;;;;;;;4969086;28;19986;-70
2023/04/04 02:17:34;;;;;;;;;;;;;;;;;;4995296;28;19928;-72
2023/04/04 02:20:02;;;;;;;;;;;;;;;;;;4979852;28;20292;-72
2023/04/04 02:22:28;;;;;;;;;;;;;;;;;;4975180;28;19922;-72
2023/04/04 02:24:56;;;;;;;;;;;;;;;;;;4969182;28;20003;-72
2023/04/04 02:27:21;;;;;;;;;;;;;;;;;;4991778;28;19921;-72
2023/04/04 02:29:49;;;;;;;;;;;;;;;;;;4985637;28;19928;-72
2023/04/04 02:32:17;;;;;;;;;;;;;;;;;;4976713;28;19922;-73
2023/04/04 02:34:43;;;;;;;;;;;;;;;;;;4982854;28;19922;-73
2023/04/04 02:37:11;;;;;;;;;;;;;;;;;;4985420;28;19990;-73
2023/04/04 02:39:39;;;;;;;;;;;;;;;;;;4975869;28;21439;-72
2023/04/04 02:42:07;;;;;;;;;;;;;;;;;;4986174;28;21190;-73
2023/04/04 02:44:35;;;;;;;;;;;;;;;;;;4983830;28;19922;-72
2023/04/04 02:47:01;;;;;;;;;;;;;;;;;;4967355;28;20500;-72
2023/04/04 02:49:29;;;;;;;;;;;;;;;;;;4985196;28;19945;-71
2023/04/04 02:51:54;;;;;;;;;;;;;;;;;;4980623;28;20553;-72
2023/04/04 02:54:25;;;;;;;;;;;;;;;;;;4966738;28;19944;-72
2023/04/04 02:56:55;;;;;;;;;;;;;;;;;;4985876;28;19967;-74
2023/04/04 02:59:20;;;;;;;;;;;;;;;;;;4976846;28;20387;-73
2023/04/04 03:01:48;;;;;;;;;;;;;;;;;;4975769;28;19921;-73
2023/04/04 03:04:14;;;;;;;;;;;;;;;;;;4981772;28;19976;-73
2023/04/04 03:06:42;;;;;;;;;;;;;;;;;;4977821;28;20815;-73
2023/04/04 03:09:10;;;;;;;;;;;;;;;;;;4984262;28;21447;-72
2023/04/04 03:11:35;;;;;;;;;;;;;;;;;;4986172;28;19921;-73
2023/04/04 03:14:06;;;;;;;;;;;;;;;;;;4986874;28;19932;-73
2023/04/04 03:16:34;;;;;;;;;;;;;;;;;;4966960;28;20544;-73
2023/04/04 03:18:59;;;;;;;;;;;;;;;;;;4969118;28;19917;-73
2023/04/04 03:21:24;;;;;;;;;;;;;;;;;;4982244;28;19918;-74
2023/04/04 03:23:55;;;;;;;;;;;;;;;;;;4986063;28;20346;-75
2023/04/04 03:26:20;;;;;;;;;;;;;;;;;;4989315;28;20180;-73
2023/04/04 03:28:46;;;;;;;;;;;;;;;;;;4963180;28;19917;-74
2023/04/04 03:31:11;;;;;;;;;;;;;;;;;;4971826;28;19951;-75
2023/04/04 03:33:42;;;;;;;;;;;;;;;;;;4989305;28;20356;-74
2023/04/04 03:36:07;;;;;;;;;;;;;;;;;;4967310;28;19987;-74
2023/04/04 03:38:35;;;;;;;;;;;;;;;;;;4983387;28;20011;-74
2023/04/04 03:41:02;;;;;;;;;;;;;;;;;;4975941;28;19961;-74
2023/04/04 03:43:28;;;;;;;;;;;;;;;;;;4981050;28;19926;-74
2023/04/04 03:45:54;;;;;;;;;;;;;;;;;;4965633;28;19917;-73
2023/04/04 03:48:19;;;;;;;;;;;;;;;;;;4974382;28;20305;-75
2023/04/04 03:50:44;;;;;;;;;;;;;;;;;;4983480;28;19928;-75
2023/04/04 03:53:09;;;;;;;;;;;;;;;;;;4973421;28;19936;-74
2023/04/04 03:55:37;;;;;;;;;;;;;;;;;;4985936;28;20404;-74
2023/04/04 03:58:05;;;;;;;;;;;;;;;;;;4978634;28;19944;-74
2023/04/04 04:00:31;;;;;;;;;;;;;;;;;;4980743;28;19921;-75
2023/04/04 04:02:56;;;;;;;;;;;;;;;;;;4978578;28;20183;-74
2023/04/04 04:05:24;;;;;;;;;;;;;;;;;;4982423;28;19922;-74
2023/04/04 04:07:49;;;;;;;;;;;;;;;;;;4978246;28;20406;-74
2023/04/04 04:10:14;;;;;;;;;;;;;;;;;;4975662;28;20052;-75
2023/04/04 04:12:40;;;;;;;;;;;;;;;;;;4965064;28;19932;-74
2023/04/04 04:15:06;;;;;;;;;;;;;;;;;;4989471;28;19925;-74
2023/04/04 04:17:31;;;;;;;;;;;;;;;;;;4964849;28;19921;-74
2023/04/04 04:19:56;;;;;;;;;;;;;;;;;;4980881;28;19921;-74
2023/04/04 04:22:22;;;;;;;;;;;;;;;;;;4965698;28;20759;-75
2023/04/04 04:24:47;;;;;;;;;;;;;;;;;;4979233;28;19968;-74
2023/04/04 04:27:17;;;;;;;;;;;;;;;;;;4979567;28;19964;-74
2023/04/04 04:29:45;;;;;;;;;;;;;;;;;;4983624;28;19921;-75
2023/04/04 04:32:12;;;;;;;;;;;;;;;;;;4981182;28;19928;-75
2023/04/04 04:34:40;;;;;;;;;;;;;;;;;;4984415;28;19980;-74
2023/04/04 04:37:10;;;;;;;;;;;;;;;;;;4982470;28;19922;-74
2023/04/04 04:39:38;;;;;;;;;;;;;;;;;;4989896;28;19969;-74
2023/04/04 04:42:03;;;;;;;;;;;;;;;;;;4968936;28;19932;-75
2023/04/04 04:44:31;;;;;;;;;;;;;;;;;;4974154;28;19922;-75
2023/04/04 04:46:57;;;;;;;;;;;;;;;;;;4977132;28;19928;-74
2023/04/04 04:49:22;;;;;;;;;;;;;;;;;;4988708;28;19922;-74
2023/04/04 04:51:48;;;;;;;;;;;;;;;;;;4989023;28;19917;-74
2023/04/04 04:54:13;;;;;;;;;;;;;;;;;;4981137;28;19925;-74
2023/04/04 04:56:39;;;;;;;;;;;;;;;;;;4985776;28;19922;-74
2023/04/04 04:59:07;;;;;;;;;;;;;;;;;;4970351;28;19918;-74
2023/04/04 05:01:33;;;;;;;;;;;;;;;;;;4976400;28;20954;-74
2023/04/04 05:03:58;;;;;;;;;;;;;;;;;;4987099;28;20429;-73
2023/04/04 05:06:23;;;;;;;;;;;;;;;;;;4977368;28;20027;-74
2023/04/04 05:08:51;;;;;;;;;;;;;;;;;;4972553;28;19944;-74
2023/04/04 05:11:20;;;;;;;;;;;;;;;;;;4975143;28;19975;-74
2023/04/04 05:13:45;;;;;;;;;;;;;;;;;;4976445;28;20154;-74
2023/04/04 05:16:19;;;;;;;;;;;;;;;;;;4977320;28;19929;-74
2023/04/04 05:18:47;;;;;;;;;;;;;;;;;;4993959;28;19924;-74
2023/04/04 05:21:15;;;;;;;;;;;;;;;;;;4963123;28;19925;-74
2023/04/04 05:23:41;;;;;;;;;;;;;;;;;;4983970;28;19922;-74
2023/04/04 05:26:06;;;;;;;;;;;;;;;;;;4969213;28;20280;-74
2023/04/04 05:28:31;;;;;;;;;;;;;;;;;;4983679;28;20036;-74
2023/04/04 05:30:57;;;;;;;;;;;;;;;;;;4970326;28;19971;-75
2023/04/04 05:33:25;;;;;;;;;;;;;;;;;;4966223;28;20887;-75
2023/04/04 05:35:53;;;;;;;;;;;;;;;;;;4982928;28;20003;-75
2023/04/04 05:38:21;;;;;;;;;;;;;;;;;;4981403;28;20402;-75
2023/04/04 05:40:49;;;;;;;;;;;;;;;;;;4981186;28;20950;-75
2023/04/04 05:43:17;;;;;;;;;;;;;;;;;;4980298;28;19926;-75
2023/04/04 05:45:43;;;;;;;;;;;;;;;;;;4985058;28;20616;-75
2023/04/04 05:48:11;;;;;;;;;;;;;;;;;;4973487;28;20044;-75
2023/04/04 05:50:36;;;;;;;;;;;;;;;;;;4980047;28;20976;-74
2023/04/04 05:53:03;;;;;;;;;;;;;;;;;;4965006;28;20375;-74
2023/04/04 05:55:28;;;;;;;;;;;;;;;;;;4980415;28;19929;-75
2023/04/04 05:57:55;;;;;;;;;;;;;;;;;;4972123;28;20198;-75
2023/04/04 06:00:23;;;;;;;;;;;;;;;;;;4982207;28;19952;-75
2023/04/04 06:02:49;;;;;;;;;;;;;;;;;;4974962;28;19918;-75
2023/04/04 06:05:17;;;;;;;;;;;;;;;;;;4982400;28;20528;-75
2023/04/04 06:07:43;;;;;;;;;;;;;;;;;;4984732;28;20381;-76
2023/04/04 06:10:11;;;;;;;;;;;;;;;;;;4982519;28;20158;-76
2023/04/04 06:12:39;;;;;;;;;;;;;;;;;;4990419;28;19925;-76
2023/04/04 06:15:10;;;;;;;;;;;;;;;;;;4964473;28;19924;-76
2023/04/04 06:17:37;;;;;;;;;;;;;;;;;;4987920;28;19917;-75
2023/04/04 06:20:03;;;;;;;;;;;;;;;;;;4975203;28;21534;-75
2023/04/04 06:22:31;;;;;;;;;;;;;;;;;;4973111;28;19917;-75
2023/04/04 06:24:59;;;;;;;;;;;;;;;;;;4984331;28;20361;-75
2023/04/04 06:27:28;;;;;;;;;;;;;;;;;;4996810;28;19932;-75
2023/04/04 06:29:58;;;;;;;;;;;;;;;;;;4980931;28;19921;-75
2023/04/04 06:32:28;;;;;;;;;;;;;;;;;;4967833;28;19970;-76
2023/04/04 06:34:54;;;;;;;;;;;;;;;;;;4982226;28;19917;-76
2023/04/04 06:37:22;;;;;;;;;;;;;;;;;;4984973;28;20443;-75
2023/04/04 06:39:51;;;;;;;;;;;;;;;;;;4982669;28;19929;-75
2023/04/04 06:42:18;;;;;;;;;;;;;;;;;;4996599;28;20587;-75
2023/04/04 06:44:46;;;;;;;;;;;;;;;;;;4983612;28;20265;-76
2023/04/04 06:47:11;;;;;;;;;;;;;;;;;;4991707;28;19928;-73
2023/04/04 06:49:39;;;;;;;;;;;;;;;;;;4966507;28;20385;-76
2023/04/04 06:52:04;;;;;;;;;;;;;;;;;;4981863;28;19921;-74
2023/04/04 06:54:35;;;;;;;;;;;;;;;;;;4974187;28;20297;-75
2023/04/04 06:57:00;;;;;;;;;;;;;;;;;;4981620;28;20336;-74
2023/04/04 06:59:26;;;;;;;;;;;;;;;;;;4974944;28;19936;-75
2023/04/04 07:01:55;;;;;;;;;;;;;;;;;;4982476;28;19968;-75
2023/04/04 07:04:23;;;;;;;;;;;;;;;;;;4996601;28;20059;-75
2023/04/04 07:06:48;;;;;;;;;;;;;;;;;;4988732;28;20385;-76
2023/04/04 07:09:13;;;;;;;;;;;;;;;;;;4981806;28;19929;-76
2023/04/04 07:11:39;;;;;;;;;;;;;;;;;;4979761;28;19929;-75
2023/04/04 07:14:04;;;;;;;;;;;;;;;;;;4984283;28;19933;-75
2023/04/04 07:16:35;;;;;;;;;;;;;;;;;;4990421;28;21152;-75
2023/04/04 07:19:03;;;;;;;;;;;;;;;;;;4982786;28;19921;-75
2023/04/04 07:21:34;;;;;;;;;;;;;;;;;;4990455;28;19924;-76
2023/04/04 07:24:01;;;;;;;;;;;;;;;;;;4974092;28;20009;-74
2023/04/04 07:26:26;;;;;;;;;;;;;;;;;;4981972;28;19928;-73
2023/04/04 07:28:52;;;;;;;;;;;;;;;;;;4968910;28;20192;-73
2023/04/04 07:31:17;;;;;;;;;;;;;;;;;;4968694;28;20015;-73
2023/04/04 07:33:42;;;;;;;;;;;;;;;;;;4995678;28;19933;-74
2023/04/04 07:36:08;;;;;;;;;;;;;;;;;;4967106;28;20369;-75
2023/04/04 07:38:37;;;;;;;;;;;;;;;;;;4979849;28;19948;-73
2023/04/04 07:41:05;;;;;;;;;;;;;;;;;;4980500;28;20281;-74
2023/04/04 07:43:34;;;;;;;;;;;;;;;;;;4983230;28;19926;-73
2023/04/04 07:46:02;;;;;;;;;;;;;;;;;;4981519;28;20415;-74
2023/04/04 07:48:30;;;;;;;;;;;;;;;;;;4974580;28;19937;-73
2023/04/04 07:50:59;;;;;;;;;;;;;;;;;;4972193;28;20195;-73
2023/04/04 07:53:27;;;;;;;;;;;;;;;;;;4975831;28;20083;-72
2023/04/04 07:55:52;;;;;;;;;;;;;;;;;;4984591;28;19948;-73
2023/04/04 07:58:20;;;;;;;;;;;;;;;;;;4977230;28;19953;-75
2023/04/04 08:00:48;;;;;;;;;;;;;;;;;;4980431;28;19923;-73
2023/04/04 08:03:15;;;;;;;;;;;;;;;;;;4980095;28;19922;-72
2023/04/04 08:05:45;;;;;;;;;;;;;;;;;;4979245;28;19932;-72
2023/04/04 08:08:13;;;;;;;;;;;;;;;;;;4990192;28;20007;-73
2023/04/04 08:10:39;;;;;;;;;;;;;;;;;;4971062;28;19921;-72
2023/04/04 08:13:05;;;;;;;;;;;;;;;;;;4983362;28;19921;-73
2023/04/04 08:15:32;;;;;;;;;;;;;;;;;;4972879;28;20068;-73
2023/04/04 08:17:58;;;;;;;;;;;;;;;;;;4977689;28;20182;-72
2023/04/04 08:20:23;;;;;;;;;;;;;;;;;;4963878;28;20520;-73
2023/04/04 08:22:51;;;;;;;;;;;;;;;;;;4990891;28;20378;-73
2023/04/04 08:25:17;;;;;;;;;;;;;;;;;;4973304;28;20175;-72
2023/04/04 08:27:43;;;;;;;;;;;;;;;;;;4985332;28;19929;-71
2023/04/04 08:30:09;;;;;;;;;;;;;;;;;;4981136;28;20008;-73
2023/04/04 08:32:34;;;;;;;;;;;;;;;;;;4981110;28;19917;-72
2023/04/04 08:34:59;;;;;;;;;;;;;;;;;;4983469;28;20356;-71
2023/04/04 08:37:25;;;;;;;;;;;;;;;;;;4977105;28;19918;-74
2023/04/04 08:39:50;;;;;;;;;;;;;;;;;;4978814;28;21577;-71
2023/04/04 08:42:16;;;;;;;;;;;;;;;;;;4974761;28;19925;-73
2023/04/04 08:44:41;;;;;;;;;;;;;;;;;;4967263;28;19926;-74
2023/04/04 08:47:08;;;;;;;;;;;;;;;;;;4970971;28;19924;-74
2023/04/04 08:49:33;;;;;;;;;;;;;;;;;;4963611;28;19971;-74
2023/04/04 08:51:59;;;;;;;;;;;;;;;;;;4981487;28;20016;-73
2023/04/04 08:54:25;;;;;;;;;;;;;;;;;;4981983;28;19921;-74
2023/04/04 08:56:50;;;;;;;;;;;;;;;;;;4967106;28;20055;-73
2023/04/04 08:59:17;;;;;;;;;;;;;;;;;;4985921;28;19921;-75
2023/04/04 09:01:42;;;;;;;;;;;;;;;;;;4974927;28;19922;-72
2023/04/04 09:04:08;;;;;;;;;;;;;;;;;;4977393;28;20396;-74
2023/04/04 09:06:33;;;;;;;;;;;;;;;;;;4986457;28;19928;-74
2023/04/04 09:08:59;;;;;;;;;;;;;;;;;;4985823;28;20281;-73
2023/04/04 09:11:24;;;;;;;;;;;;;;;;;;4983618;28;20216;-73
2023/04/04 09:13:50;;;;;;;;;;;;;;;;;;4984231;28;19924;-74
2023/04/04 09:16:16;;;;;;;;;;;;;;;;;;4986260;28;19921;-74
2023/04/04 09:18:41;;;;;;;;;;;;;;;;;;4986547;28;19957;-74
2023/04/04 09:21:06;;;;;;;;;;;;;;;;;;4973753;28;19921;-73
2023/04/04 09:23:32;;;;;;;;;;;;;;;;;;4985740;28;19929;-74
2023/04/04 09:25:57;;;;;;;;;;;;;;;;;;4981917;28;19918;-72
2023/04/04 09:28:22;;;;;;;;;;;;;;;;;;4986926;28;20384;-71
2023/04/04 09:30:49;;;;;;;;;;;;;;;;;;4993555;28;19966;-74
2023/04/04 09:33:14;;;;;;;;;;;;;;;;;;4989471;28;20377;-72
2023/04/04 09:35:40;;;;;;;;;;;;;;;;;;4984227;28;20286;-73
2023/04/04 09:38:06;;;;;;;;;;;;;;;;;;4984770;28;19998;-73
2023/04/04 09:40:31;;;;;;;;;;;;;;;;;;4980055;28;20472;-72
2023/04/04 09:42:56;;;;;;;;;;;;;;;;;;5000153;28;19929;-71
2023/04/04 09:45:22;;;;;;;;;;;;;;;;;;4985364;28;19918;-74
2023/04/04 09:47:47;;;;;;;;;;;;;;;;;;4983657;28;20447;-73
2023/04/04 09:50:13;;;;;;;;;;;;;;;;;;4986795;28;20325;-74
2023/04/04 09:52:39;;;;;;;;;;;;;;;;;;4994463;28;19984;-73
2023/04/04 09:55:04;;;;;;;;;;;;;;;;;;5008133;28;19940;-74
2023/04/04 09:57:30;;;;;;;;;;;;;;;;;;4978332;28;19921;-74
2023/04/04 09:59:55;;;;;;;;;;;;;;;;;;5005629;28;19933;-73
2023/04/04 10:02:23;;;;;;;;;;;;;;;;;;4995234;28;19928;-75
2023/04/04 10:04:48;;;;;;;;;;;;;;;;;;5008433;28;19921;-71
2023/04/04 10:07:14;;;;;;;;;;;;;;;;;;5006387;28;19924;-73
2023/04/04 10:09:39;;;;;;;;;;;;;;;;;;4996689;28;19966;-74
2023/04/04 10:12:04;;;;;;;;;;;;;;;;;;4988016;28;20397;-72
2023/04/04 10:14:30;;;;;;;;;;;;;;;;;;4997875;28;20015;-73
2023/04/04 10:16:55;;;;;;;;;;;;;;;;;;4998293;28;20024;-72
2023/04/04 10:19:21;;;;;;;;;;;;;;;;;;5003391;28;20015;-73
2023/04/04 10:21:46;;;;;;;;;;;;;;;;;;4996956;28;22142;-72
2023/04/04 10:24:14;;;;;;;;;;;;;;;;;;5003905;28;20008;-73
2023/04/04 10:26:40;;;;;;;;;;;;;;;;;;4999321;28;20008;-73
2023/04/04 10:29:05;;;;;;;;;;;;;;;;;;4994745;28;20542;-72
2023/04/04 10:31:31;;;;;;;;;;;;;;;;;;4993817;28;19921;-73
2023/04/04 10:33:56;;;;;;;;;;;;;;;;;;5002826;28;19925;-73
2023/04/04 10:36:21;;;;;;;;;;;;;;;;;;5001360;28;19963;-72
2023/04/04 10:38:47;;;;;;;;;;;;;;;;;;4992981;28;19980;-71
2023/04/04 10:41:12;;;;;;;;;;;;;;;;;;4994925;28;20392;-73
2023/04/04 10:43:37;;;;;;;;;;;;;;;;;;4991411;28;20381;-73
2023/04/04 10:46:04;;;;;;;;;;;;;;;;;;4991219;28;19975;-72
2023/04/04 10:48:29;;;;;;;;;;;;;;;;;;4977689;28;19933;-72
2023/04/04 10:50:55;;;;;;;;;;;;;;;;;;4996027;28;20128;-73
2023/04/04 10:53:21;;;;;;;;;;;;;;;;;;4992954;28;20574;-73
2023/04/04 10:55:46;;;;;;;;;;;;;;;;;;4996735;28;19953;-73
2023/04/04 10:58:12;;;;;;;;;;;;;;;;;;4990827;28;19988;-73
2023/04/04 11:00:37;;;;;;;;;;;;;;;;;;4974768;28;20376;-73
2023/04/04 11:03:02;;;;;;;;;;;;;;;;;;4990758;28;20004;-73
2023/04/04 11:05:27;;;;;;;;;;;;;;;;;;4991042;28;20385;-71
2023/04/04 11:07:53;;;;;;;;;;;;;;;;;;4994298;28;20051;-71
2023/04/04 11:10:19;;;;;;;;;;;;;;;;;;5003074;28;19921;-71
2023/04/04 11:12:48;;;;;;;;;;;;;;;;;;4993948;28;19921;-72
2023/04/04 11:15:14;;;;;;;;;;;;;;;;;;4979075;28;20369;-71
2023/04/04 11:17:40;;;;;;;;;;;;;;;;;;4993079;28;20068;-73
2023/04/04 11:20:05;;;;;;;;;;;;;;;;;;4995286;28;20039;-72
2023/04/04 11:22:31;;;;;;;;;;;;;;;;;;4986649;28;19922;-72
2023/04/04 11:24:58;;;;;;;;;;;;;;;;;;4998001;28;19969;-72
2023/04/04 11:27:27;;;;;;;;;;;;;;;;;;4996964;28;19913;-71
2023/04/04 11:29:52;;;;;;;;;;;;;;;;;;4996824;28;20377;-74
2023/04/04 11:32:18;;;;;;;;;;;;;;;;;;4987581;28;21573;-72
2023/04/04 11:34:43;;;;;;;;;;;;;;;;;;4995374;28;19940;-72
2023/04/04 11:37:08;;;;;;;;;;;;;;;;;;4992957;28;20012;-72
2023/04/04 11:39:34;;;;;;;;;;;;;;;;;;4994052;28;19921;-73
2023/04/04 11:42:02;;;;;;;;;;;;;;;;;;5002120;28;20270;-73
2023/04/04 11:44:29;;;;;;;;;;;;;;;;;;4997228;28;22037;-72
2023/04/04 11:46:55;;;;;;;;;;;;;;;;;;4995785;28;19921;-73
2023/04/04 11:49:20;;;;;;;;;;;;;;;;;;4974918;28;19929;-70
2023/04/04 11:51:45;;;;;;;;;;;;;;;;;;4988014;28;19921;-70
2023/04/04 11:54:11;;;;;;;;;;;;;;;;;;4993642;28;19925;-73
2023/04/04 11:56:36;;;;;;;;;;;;;;;;;;4983974;28;20577;-70
2023/04/04 11:59:01;;;;;;;;;;;;;;;;;;4985968;28;20023;-71
2023/04/04 12:01:27;;;;;;;;;;;;;;;;;;4987867;28;19917;-72
2023/04/04 12:03:52;;;;;;;;;;;;;;;;;;5005886;28;19921;-75
2023/04/04 12:06:17;;;;;;;;;;;;;;;;;;4990859;28;20449;-72
2023/04/04 12:08:43;;;;;;;;;;;;;;;;;;4982139;28;20055;-71
2023/04/04 12:11:09;;;;;;;;;;;;;;;;;;4989096;28;20435;-72
2023/04/04 12:13:35;;;;;;;;;;;;;;;;;;4988384;28;20553;-72
2023/04/04 12:16:01;;;;;;;;;;;;;;;;;;4995023;28;19921;-72
2023/04/04 12:18:26;;;;;;;;;;;;;;;;;;4977500;28;19975;-72
2023/04/04 12:20:51;;;;;;;;;;;;;;;;;;5007239;28;19924;-72
2023/04/04 12:23:17;;;;;;;;;;;;;;;;;;4992702;28;20428;-72
2023/04/04 12:25:43;;;;;;;;;;;;;;;;;;4980241;28;19922;-72
2023/04/04 12:28:09;;;;;;;;;;;;;;;;;;4981620;28;19922;-72
2023/04/04 12:30:35;;;;;;;;;;;;;;;;;;5000077;28;20014;-72
2023/04/04 12:33:00;;;;;;;;;;;;;;;;;;4988487;28;19925;-72
2023/04/04 12:35:26;;;;;;;;;;;;;;;;;;4996708;28;19917;-73
2023/04/04 12:37:52;;;;;;;;;;;;;;;;;;5004063;28;20396;-72
2023/04/04 12:40:17;;;;;;;;;;;;;;;;;;4997244;28;19917;-72
2023/04/04 12:42:43;;;;;;;;;;;;;;;;;;4991059;28;19936;-73
2023/04/04 12:45:08;;;;;;;;;;;;;;;;;;4976290;28;19940;-72
2023/04/04 12:47:33;;;;;;;;;;;;;;;;;;4999824;28;20320;-73
2023/04/04 12:49:59;;;;;;;;;;;;;;;;;;4984879;28;19922;-73
2023/04/04 12:52:28;;;;;;;;;;;;;;;;;;5002840;28;19917;-71
2023/04/04 12:54:54;;;;;;;;;;;;;;;;;;5001863;28;20108;-73
2023/04/04 12:57:20;;;;;;;;;;;;;;;;;;4984561;28;19922;-73
2023/04/04 12:59:48;;;;;;;;;;;;;;;;;;4995865;28;19918;-73
2023/04/04 13:02:13;;;;;;;;;;;;;;;;;;4988677;28;19951;-73
2023/04/04 13:04:39;;;;;;;;;;;;;;;;;;4988829;28;19971;-72
2023/04/04 13:07:04;;;;;;;;;;;;;;;;;;4978314;28;20571;-72
2023/04/04 13:09:33;;;;;;;;;;;;;;;;;;4990589;28;20032;-71
2023/04/04 13:11:59;;;;;;;;;;;;;;;;;;4974398;28;19925;-72
2023/04/04 13:14:24;;;;;;;;;;;;;;;;;;4987587;28;19921;-72
2023/04/04 13:16:50;;;;;;;;;;;;;;;;;;4992981;28;19931;-68
2023/04/04 13:19:15;;;;;;;;;;;;;;;;;;5001580;28;19918;-71
2023/04/04 13:21:40;;;;;;;;;;;;;;;;;;4993422;28;20284;-71
2023/04/04 13:24:06;;;;;;;;;;;;;;;;;;4992823;28;19920;-70
2023/04/04 13:26:32;;;;;;;;;;;;;;;;;;4992873;28;20621;-71
2023/04/04 13:28:57;;;;;;;;;;;;;;;;;;4991890;28;19968;-70
2023/04/04 13:31:23;;;;;;;;;;;;;;;;;;4988031;28;20050;-72
2023/04/04 13:33:49;;;;;;;;;;;;;;;;;;4988251;28;20383;-71
2023/04/04 13:36:15;;;;;;;;;;;;;;;;;;4986949;28;19921;-72
2023/04/04 13:38:40;;;;;;;;;;;;;;;;;;4984300;28;20083;-71
2023/04/04 13:41:05;;;;;;;;;;;;;;;;;;4989652;28;19968;-72
2023/04/04 13:43:31;;;;;;;;;;;;;;;;;;4987947;28;19971;-71
2023/04/04 13:45:59;;;;;;;;;;;;;;;;;;4987312;28;20551;-72
2023/04/04 13:48:25;;;;;;;;;;;;;;;;;;4981390;28;20008;-72
2023/04/04 13:50:51;;;;;;;;;;;;;;;;;;4968261;28;20105;-71
2023/04/04 13:53:17;;;;;;;;;;;;;;;;;;4984175;28;19921;-71
2023/04/04 13:55:42;;;;;;;;;;;;;;;;;;4985824;28;19939;-71
2023/04/04 13:58:08;;;;;;;;;;;;;;;;;;4987290;28;20133;-72
2023/04/04 14:00:33;;;;;;;;;;;;;;;;;;4993009;28;19918;-72
2023/04/04 14:02:58;;;;;;;;;;;;;;;;;;4987904;28;19925;-73
2023/04/04 14:05:24;;;;;;;;;;;;;;;;;;4982050;28;20685;-69
2023/04/04 14:07:49;;;;;;;;;;;;;;;;;;4982341;28;19921;-70
2023/04/04 14:10:15;;;;;;;;;;;;;;;;;;4982579;28;19922;-72
2023/04/04 14:12:41;;;;;;;;;;;;;;;;;;4992737;28;19925;-72
2023/04/04 14:15:06;;;;;;;;;;;;;;;;;;4985267;28;19936;-71
2023/04/04 14:17:32;;;;;;;;;;;;;;;;;;4995364;28;19926;-72
2023/04/04 14:19:58;;;;;;;;;;;;;;;;;;4982714;28;20016;-72
2023/04/04 14:22:24;;;;;;;;;;;;;;;;;;4974162;28;20300;-72
2023/04/04 14:24:51;;;;;;;;;;;;;;;;;;4985581;28;19979;-72
2023/04/04 14:27:17;;;;;;;;;;;;;;;;;;4984673;28;20767;-72
2023/04/04 14:29:42;;;;;;;;;;;;;;;;;;4978628;28;19925;-72
2023/04/04 14:32:08;;;;;;;;;;;;;;;;;;5002823;28;19984;-73
2023/04/04 14:34:33;;;;;;;;;;;;;;;;;;4976117;28;19984;-73
2023/04/04 14:36:59;;;;;;;;;;;;;;;;;;4990983;28;19922;-72
2023/04/04 14:39:24;;;;;;;;;;;;;;;;;;4998985;28;20399;-70
2023/04/04 14:41:50;;;;;;;;;;;;;;;;;;4971531;28;19936;-69
2023/04/04 14:44:15;;;;;;;;;;;;;;;;;;4981799;28;20364;-72
2023/04/04 14:46:46;;;;;;;;;;;;;;;;;;4982678;28;20293;-72
2023/04/04 14:49:12;;;;;;;;;;;;;;;;;;4983081;28;20970;-69
2023/04/04 14:54:25;;;;;;;;;;;;;;;;;;4989210;28;19921;-73
2023/04/04 14:57:01;;;;;;;;;;;;;;;;;;4987037;28;19921;-72
2023/04/04 14:59:26;;;;;;;;;;;;;;;;;;4982894;28;20004;-72
2023/04/04 15:05:31;;;;;;;;;;;;;;;;;;4982035;28;19927;-73
2023/04/04 15:07:57;;;;;;;;;;;;;;;;;;4999322;28;20375;-72
2023/04/04 15:10:23;;;;;;;;;;;;;;;;;;4999473;28;20039;-73
2023/04/04 15:16:10;;;;;;;;;;;;;;;;;;4982593;28;19925;-72
2023/04/04 15:18:36;;;;;;;;;;;;;;;;;;4985914;28;19921;-73
2023/04/04 15:21:02;;;;;;;;;;;;;;;;;;4992601;28;20450;-73
2023/04/04 15:23:27;;;;;;;;;;;;;;;;;;4993918;28;19926;-72
2023/04/04 15:25:56;;;;;;;;;;;;;;;;;;4992970;28;20320;-74
2023/04/04 15:29:06;;;;;;;;;;;;;;;;;;4997629;28;20545;-73
2023/04/04 15:31:31;;;;;;;;;;;;;;;;;;4974728;28;20051;-73
2023/04/04 15:34:00;;;;;;;;;;;;;;;;;;4983785;28;19929;-73
2023/04/04 15:36:26;;;;;;;;;;;;;;;;;;4981075;28;20431;-72
2023/04/04 15:38:52;;;;;;;;;;;;;;;;;;4982329;28;19925;-73
2023/04/04 15:41:17;;;;;;;;;;;;;;;;;;4983032;28;19928;-73
2023/04/04 15:43:43;;;;;;;;;;;;;;;;;;4983526;28;19926;-73
2023/04/04 15:46:08;;;;;;;;;;;;;;;;;;4982641;28;19918;-73
2023/04/04 15:48:33;;;;;;;;;;;;;;;;;;4989003;28;20020;-73
2023/04/04 15:51:02;;;;;;;;;;;;;;;;;;4984355;28;19922;-73
2023/04/04 15:53:29;;;;;;;;;;;;;;;;;;4994492;28;20015;-72
2023/04/04 15:55:55;;;;;;;;;;;;;;;;;;4984300;28;19921;-72
2023/04/04 15:58:20;;;;;;;;;;;;;;;;;;4964507;28;19921;-72
2023/04/04 16:00:46;;;;;;;;;;;;;;;;;;4986238;28;19979;-71
2023/04/04 16:03:11;;;;;;;;;;;;;;;;;;4981697;28;20436;-70
2023/04/04 16:05:40;;;;;;;;;;;;;;;;;;4985072;28;19953;-71
2023/04/04 16:08:05;;;;;;;;;;;;;;;;;;4981170;28;19921;-71
2023/04/04 16:10:34;;;;;;;;;;;;;;;;;;4977548;28;19988;-71
2023/04/04 16:12:59;;;;;;;;;;;;;;;;;;4981933;28;20519;-72
2023/04/04 16:15:25;;;;;;;;;;;;;;;;;;4981531;28;19922;-71
2023/04/04 16:17:52;;;;;;;;;;;;;;;;;;4985098;28;20030;-71
2023/04/04 16:20:17;;;;;;;;;;;;;;;;;;4992229;28;19957;-71
2023/04/04 16:22:43;;;;;;;;;;;;;;;;;;4974462;28;20436;-71
2023/04/04 16:25:08;;;;;;;;;;;;;;;;;;4983428;28;19986;-71
2023/04/04 16:27:36;;;;;;;;;;;;;;;;;;4985441;28;19928;-71
2023/04/04 16:30:01;;;;;;;;;;;;;;;;;;4989281;28;19921;-71
2023/04/04 16:32:30;;;;;;;;;;;;;;;;;;4986319;28;19924;-72
2023/04/04 16:34:55;;;;;;;;;;;;;;;;;;4978772;28;20046;-71
2023/04/04 16:37:22;;;;;;;;;;;;;;;;;;4984274;28;20641;-72
2023/04/04 16:39:47;;;;;;;;;;;;;;;;;;4975573;28;20391;-70
2023/04/04 16:42:13;;;;;;;;;;;;;;;;;;4975374;28;19982;-71
2023/04/04 16:44:38;;;;;;;;;;;;;;;;;;4976751;28;19921;-71
2023/04/04 16:47:09;;;;;;;;;;;;;;;;;;4986280;28;21534;-71
2023/04/04 16:49:34;;;;;;;;;;;;;;;;;;4978838;28;20952;-71